sensor_id;sensor_type;location;lat;lon;timestamp;temperature;humidity
78649;DHT22;67962;47.310;9.642;2023-03-30T00:01:03;12.40;70.70
78649;DHT22;67962;47.310;9.642;2023-03-30T00:03:28;12.40;70.50
78649;DHT22;67962;47.310;9.642;2023-03-30T00:05:55;12.40;70.60
78649;DHT22;67962;47.310;9.642;2023-03-30T00:08:24;12.40;70.70
78649;DHT22;67962;47.310;9.642;2023-03-30T00:11:10;12.30;70.70
78649;DHT22;67962;47.310;9.642;2023-03-30T00:13:38;12.40;70.80
78649;DHT22;67962;47.310;9.642;2023-03-30T00:16:06;12.30;71.60
78649;DHT22;67962;47.310;9.642;2023-03-30T00:18:33;12.30;70.80
78649;DHT22;67962;47.310;9.642;2023-03-30T00:20:58;12.40;70.60
78649;DHT22;67962;47.310;9.642;2023-03-30T00:23:25;12.40;70.40
78649;DHT22;67962;47.310;9.642;2023-03-30T00:25:51;12.40;70.30
78649;DHT22;67962;47.310;9.642;2023-03-30T00:28:17;12.40;70.30
78649;DHT22;67962;47.310;9.642;2023-03-30T00:30:42;12.40;70.20
78649;DHT22;67962;47.310;9.642;2023-03-30T00:33:08;12.40;70.30
78649;DHT22;67962;47.310;9.642;2023-03-30T00:35:34;12.30;70.50
78649;DHT22;67962;47.310;9.642;2023-03-30T00:38:00;12.30;70.30
78649;DHT22;67962;47.310;9.642;2023-03-30T00:40:29;12.30;70.20
78649;DHT22;67962;47.310;9.642;2023-03-30T00:43:06;12.40;70.20
78649;DHT22;67962;47.310;9.642;2023-03-30T00:45:36;12.40;70.20
78649;DHT22;67962;47.310;9.642;2023-03-30T00:50:50;12.50;69.90
78649;DHT22;67962;47.310;9.642;2023-03-30T00:53:24;12.50;69.70
78649;DHT22;67962;47.310;9.642;2023-03-30T00:55:53;12.50;69.80
78649;DHT22;67962;47.310;9.642;2023-03-30T00:58:20;12.50;69.80
78649;DHT22;67962;47.310;9.642;2023-03-30T01:00:47;12.50;69.80
78649;DHT22;67962;47.310;9.642;2023-03-30T01:03:33;12.50;69.60
78649;DHT22;67962;47.310;9.642;2023-03-30T01:06:01;12.60;69.50
78649;DHT22;67962;47.310;9.642;2023-03-30T01:08:29;12.60;69.40
78649;DHT22;67962;47.310;9.642;2023-03-30T01:11:02;12.50;69.50
78649;DHT22;67962;47.310;9.642;2023-03-30T01:13:29;12.50;69.70
78649;DHT22;67962;47.310;9.642;2023-03-30T01:30:17;12.30;69.70
78649;DHT22;67962;47.310;9.642;2023-03-30T01:46:32;12.20;69.00
78649;DHT22;67962;47.310;9.642;2023-03-30T01:49:09;12.20;69.00
78649;DHT22;67962;47.310;9.642;2023-03-30T01:51:46;12.20;68.90
78649;DHT22;67962;47.310;9.642;2023-03-30T01:54:53;12.10;68.70
78649;DHT22;67962;47.310;9.642;2023-03-30T01:57:30;12.10;69.00
78649;DHT22;67962;47.310;9.642;2023-03-30T02:00:02;12.20;68.90
78649;DHT22;67962;47.310;9.642;2023-03-30T02:02:38;12.20;68.70
78649;DHT22;67962;47.310;9.642;2023-03-30T02:05:06;12.20;68.90
78649;DHT22;67962;47.310;9.642;2023-03-30T02:07:34;12.20;68.70
78649;DHT22;67962;47.310;9.642;2023-03-30T02:10:03;12.30;68.20
78649;DHT22;67962;47.310;9.642;2023-03-30T02:12:31;12.30;68.50
78649;DHT22;67962;47.310;9.642;2023-03-30T02:15:01;12.30;68.60
78649;DHT22;67962;47.310;9.642;2023-03-30T02:17:28;12.30;68.70
78649;DHT22;67962;47.310;9.642;2023-03-30T02:19:55;12.20;68.70
78649;DHT22;67962;47.310;9.642;2023-03-30T02:22:24;12.20;68.70
78649;DHT22;67962;47.310;9.642;2023-03-30T02:24:53;12.20;68.80
78649;DHT22;67962;47.310;9.642;2023-03-30T02:27:21;12.20;68.90
78649;DHT22;67962;47.310;9.642;2023-03-30T02:29:48;12.20;68.70
78649;DHT22;67962;47.310;9.642;2023-03-30T02:32:20;12.20;68.80
78649;DHT22;67962;47.310;9.642;2023-03-30T02:43:59;12.30;68.70
78649;DHT22;67962;47.310;9.642;2023-03-30T02:47:03;12.30;68.60
78649;DHT22;67962;47.310;9.642;2023-03-30T02:50:10;12.40;68.50
78649;DHT22;67962;47.310;9.642;2023-03-30T02:52:52;12.40;68.00
78649;DHT22;67962;47.310;9.642;2023-03-30T02:55:32;12.50;68.00
78649;DHT22;67962;47.310;9.642;2023-03-30T02:58:14;12.50;67.90
78649;DHT22;67962;47.310;9.642;2023-03-30T03:00:51;12.60;67.70
78649;DHT22;67962;47.310;9.642;2023-03-30T03:03:35;12.60;67.50
78649;DHT22;67962;47.310;9.642;2023-03-30T03:06:03;12.70;67.40
78649;DHT22;67962;47.310;9.642;2023-03-30T03:08:33;12.80;67.40
78649;DHT22;67962;47.310;9.642;2023-03-30T03:10:59;12.80;67.30
78649;DHT22;67962;47.310;9.642;2023-03-30T03:13:25;12.90;67.20
78649;DHT22;67962;47.310;9.642;2023-03-30T03:15:52;13.00;67.60
78649;DHT22;67962;47.310;9.642;2023-03-30T03:18:21;13.10;66.30
78649;DHT22;67962;47.310;9.642;2023-03-30T03:20:48;13.10;66.20
78649;DHT22;67962;47.310;9.642;2023-03-30T03:23:13;13.20;66.40
78649;DHT22;67962;47.310;9.642;2023-03-30T03:25:39;13.20;66.30
78649;DHT22;67962;47.310;9.642;2023-03-30T03:28:05;13.20;65.90
78649;DHT22;67962;47.310;9.642;2023-03-30T03:30:31;13.20;66.00
78649;DHT22;67962;47.310;9.642;2023-03-30T03:32:57;13.20;66.60
78649;DHT22;67962;47.310;9.642;2023-03-30T03:35:22;13.20;67.10
78649;DHT22;67962;47.310;9.642;2023-03-30T03:37:48;13.10;67.50
78649;DHT22;67962;47.310;9.642;2023-03-30T03:40:14;13.30;69.10
78649;DHT22;67962;47.310;9.642;2023-03-30T03:42:41;13.10;68.70
78649;DHT22;67962;47.310;9.642;2023-03-30T03:45:07;13.00;68.60
78649;DHT22;67962;47.310;9.642;2023-03-30T03:47:33;13.10;68.60
78649;DHT22;67962;47.310;9.642;2023-03-30T03:49:59;13.00;69.00
78649;DHT22;67962;47.310;9.642;2023-03-30T03:52:29;13.10;69.60
78649;DHT22;67962;47.310;9.642;2023-03-30T03:54:55;13.00;70.40
78649;DHT22;67962;47.310;9.642;2023-03-30T03:57:21;12.90;71.00
78649;DHT22;67962;47.310;9.642;2023-03-30T03:59:49;12.80;71.20
78649;DHT22;67962;47.310;9.642;2023-03-30T04:02:17;12.80;71.20
78649;DHT22;67962;47.310;9.642;2023-03-30T04:04:43;12.80;71.20
78649;DHT22;67962;47.310;9.642;2023-03-30T04:07:09;12.70;70.80
78649;DHT22;67962;47.310;9.642;2023-03-30T04:09:36;12.60;70.30
78649;DHT22;67962;47.310;9.642;2023-03-30T04:12:01;12.70;70.30
78649;DHT22;67962;47.310;9.642;2023-03-30T04:14:27;12.60;70.40
78649;DHT22;67962;47.310;9.642;2023-03-30T04:16:53;12.60;70.40
78649;DHT22;67962;47.310;9.642;2023-03-30T04:19:22;12.60;70.30
78649;DHT22;67962;47.310;9.642;2023-03-30T04:21:50;12.60;69.80
78649;DHT22;67962;47.310;9.642;2023-03-30T04:24:15;12.60;69.30
78649;DHT22;67962;47.310;9.642;2023-03-30T04:26:42;12.70;69.20
78649;DHT22;67962;47.310;9.642;2023-03-30T04:29:13;12.70;69.60
78649;DHT22;67962;47.310;9.642;2023-03-30T04:31:42;12.70;69.90
78649;DHT22;67962;47.310;9.642;2023-03-30T04:34:12;12.70;70.10
78649;DHT22;67962;47.310;9.642;2023-03-30T04:36:38;12.60;70.10
78649;DHT22;67962;47.310;9.642;2023-03-30T04:39:08;12.60;70.50
78649;DHT22;67962;47.310;9.642;2023-03-30T04:41:36;12.60;70.50
78649;DHT22;67962;47.310;9.642;2023-03-30T04:44:06;12.50;70.30
78649;DHT22;67962;47.310;9.642;2023-03-30T04:46:34;12.60;70.30
78649;DHT22;67962;47.310;9.642;2023-03-30T04:49:00;12.60;70.30
78649;DHT22;67962;47.310;9.642;2023-03-30T04:51:27;12.60;70.20
78649;DHT22;67962;47.310;9.642;2023-03-30T04:53:53;12.60;69.90
78649;DHT22;67962;47.310;9.642;2023-03-30T04:56:19;12.70;69.80
78649;DHT22;67962;47.310;9.642;2023-03-30T04:58:45;12.80;69.60
78649;DHT22;67962;47.310;9.642;2023-03-30T05:01:10;12.80;69.20
78649;DHT22;67962;47.310;9.642;2023-03-30T05:03:36;12.80;69.30
78649;DHT22;67962;47.310;9.642;2023-03-30T05:06:03;12.80;69.20
78649;DHT22;67962;47.310;9.642;2023-03-30T05:08:28;12.80;69.20
78649;DHT22;67962;47.310;9.642;2023-03-30T05:10:55;12.90;69.40
78649;DHT22;67962;47.310;9.642;2023-03-30T05:13:25;12.80;69.80
78649;DHT22;67962;47.310;9.642;2023-03-30T05:15:55;12.70;70.10
78649;DHT22;67962;47.310;9.642;2023-03-30T05:18:20;12.60;70.50
78649;DHT22;67962;47.310;9.642;2023-03-30T05:20:48;12.50;70.70
78649;DHT22;67962;47.310;9.642;2023-03-30T05:23:14;12.50;70.70
78649;DHT22;67962;47.310;9.642;2023-03-30T05:25:43;12.50;70.60
78649;DHT22;67962;47.310;9.642;2023-03-30T05:28:13;12.60;70.60
78649;DHT22;67962;47.310;9.642;2023-03-30T05:30:39;12.60;70.40
78649;DHT22;67962;47.310;9.642;2023-03-30T05:33:05;12.60;70.50
78649;DHT22;67962;47.310;9.642;2023-03-30T05:35:35;12.70;70.50
78649;DHT22;67962;47.310;9.642;2023-03-30T05:38:01;12.70;70.20
78649;DHT22;67962;47.310;9.642;2023-03-30T05:40:27;12.60;70.50
78649;DHT22;67962;47.310;9.642;2023-03-30T05:42:53;12.60;70.40
78649;DHT22;67962;47.310;9.642;2023-03-30T05:45:18;12.60;70.30
78649;DHT22;67962;47.310;9.642;2023-03-30T05:47:44;12.60;70.20
78649;DHT22;67962;47.310;9.642;2023-03-30T05:50:10;12.60;70.20
78649;DHT22;67962;47.310;9.642;2023-03-30T05:52:36;12.70;70.30
78649;DHT22;67962;47.310;9.642;2023-03-30T05:55:02;12.70;70.20
78649;DHT22;67962;47.310;9.642;2023-03-30T05:57:27;12.80;70.00
78649;DHT22;67962;47.310;9.642;2023-03-30T05:59:53;12.90;69.80
78649;DHT22;67962;47.310;9.642;2023-03-30T06:02:19;12.80;69.80
78649;DHT22;67962;47.310;9.642;2023-03-30T06:04:45;12.80;69.80
78649;DHT22;67962;47.310;9.642;2023-03-30T06:07:10;12.80;69.60
78649;DHT22;67962;47.310;9.642;2023-03-30T06:09:36;12.90;69.70
78649;DHT22;67962;47.310;9.642;2023-03-30T06:12:03;12.90;69.50
78649;DHT22;67962;47.310;9.642;2023-03-30T06:14:29;13.00;69.20
78649;DHT22;67962;47.310;9.642;2023-03-30T06:16:54;13.10;69.00
78649;DHT22;67962;47.310;9.642;2023-03-30T06:19:21;13.20;68.70
78649;DHT22;67962;47.310;9.642;2023-03-30T06:21:47;13.20;68.50
78649;DHT22;67962;47.310;9.642;2023-03-30T06:24:13;13.20;68.00
78649;DHT22;67962;47.310;9.642;2023-03-30T06:26:38;13.30;67.80
78649;DHT22;67962;47.310;9.642;2023-03-30T06:29:05;13.40;67.20
78649;DHT22;67962;47.310;9.642;2023-03-30T06:31:31;13.40;67.10
78649;DHT22;67962;47.310;9.642;2023-03-30T06:33:58;13.50;66.80
78649;DHT22;67962;47.310;9.642;2023-03-30T06:36:24;13.50;66.60
78649;DHT22;67962;47.310;9.642;2023-03-30T06:38:49;13.60;66.60
78649;DHT22;67962;47.310;9.642;2023-03-30T06:41:15;13.70;66.70
78649;DHT22;67962;47.310;9.642;2023-03-30T06:43:41;13.70;66.00
78649;DHT22;67962;47.310;9.642;2023-03-30T06:46:07;13.80;66.10
78649;DHT22;67962;47.310;9.642;2023-03-30T06:48:33;13.80;66.00
78649;DHT22;67962;47.310;9.642;2023-03-30T06:50:58;13.90;65.80
78649;DHT22;67962;47.310;9.642;2023-03-30T06:53:24;13.90;65.60
78649;DHT22;67962;47.310;9.642;2023-03-30T06:55:55;14.00;65.70
78649;DHT22;67962;47.310;9.642;2023-03-30T06:58:21;14.10;65.60
78649;DHT22;67962;47.310;9.642;2023-03-30T07:00:47;14.10;65.20
78649;DHT22;67962;47.310;9.642;2023-03-30T07:03:15;14.20;65.20
78649;DHT22;67962;47.310;9.642;2023-03-30T07:05:47;14.20;65.20
78649;DHT22;67962;47.310;9.642;2023-03-30T07:08:13;14.20;65.20
78649;DHT22;67962;47.310;9.642;2023-03-30T07:10:39;14.30;64.70
78649;DHT22;67962;47.310;9.642;2023-03-30T07:13:05;14.30;64.80
78649;DHT22;67962;47.310;9.642;2023-03-30T07:15:32;14.40;64.50
78649;DHT22;67962;47.310;9.642;2023-03-30T07:17:58;14.50;64.50
78649;DHT22;67962;47.310;9.642;2023-03-30T07:20:24;14.50;64.30
78649;DHT22;67962;47.310;9.642;2023-03-30T07:22:50;14.50;64.10
78649;DHT22;67962;47.310;9.642;2023-03-30T07:25:16;14.60;64.10
78649;DHT22;67962;47.310;9.642;2023-03-30T07:27:42;14.60;64.00
78649;DHT22;67962;47.310;9.642;2023-03-30T07:30:08;14.60;63.70
78649;DHT22;67962;47.310;9.642;2023-03-30T07:32:35;14.70;63.60
78649;DHT22;67962;47.310;9.642;2023-03-30T07:35:00;14.70;62.90
78649;DHT22;67962;47.310;9.642;2023-03-30T07:37:26;14.60;63.00
78649;DHT22;67962;47.310;9.642;2023-03-30T07:39:53;14.60;63.50
78649;DHT22;67962;47.310;9.642;2023-03-30T07:42:20;14.70;63.60
78649;DHT22;67962;47.310;9.642;2023-03-30T07:44:46;14.80;63.70
78649;DHT22;67962;47.310;9.642;2023-03-30T07:47:11;14.80;64.20
78649;DHT22;67962;47.310;9.642;2023-03-30T07:49:37;14.80;64.80
78649;DHT22;67962;47.310;9.642;2023-03-30T07:52:03;14.90;65.40
78649;DHT22;67962;47.310;9.642;2023-03-30T07:54:29;14.90;65.50
78649;DHT22;67962;47.310;9.642;2023-03-30T07:56:55;14.90;65.40
78649;DHT22;67962;47.310;9.642;2023-03-30T07:59:22;15.00;65.50
78649;DHT22;67962;47.310;9.642;2023-03-30T08:01:49;14.90;65.50
78649;DHT22;67962;47.310;9.642;2023-03-30T08:04:17;14.90;65.10
78649;DHT22;67962;47.310;9.642;2023-03-30T08:06:43;14.90;65.10
78649;DHT22;67962;47.310;9.642;2023-03-30T08:09:09;15.30;63.70
78649;DHT22;67962;47.310;9.642;2023-03-30T08:11:35;15.40;60.70
78649;DHT22;67962;47.310;9.642;2023-03-30T08:14:02;15.30;61.10
78649;DHT22;67962;47.310;9.642;2023-03-30T08:16:29;15.30;61.50
78649;DHT22;67962;47.310;9.642;2023-03-30T08:18:55;15.30;60.90
78649;DHT22;67962;47.310;9.642;2023-03-30T08:21:22;15.20;60.60
78649;DHT22;67962;47.310;9.642;2023-03-30T08:23:53;15.10;61.20
78649;DHT22;67962;47.310;9.642;2023-03-30T08:26:22;15.00;61.40
78649;DHT22;67962;47.310;9.642;2023-03-30T08:28:48;15.00;61.90
78649;DHT22;67962;47.310;9.642;2023-03-30T08:31:13;15.00;62.70
78649;DHT22;67962;47.310;9.642;2023-03-30T08:33:45;14.90;63.10
78649;DHT22;67962;47.310;9.642;2023-03-30T08:36:12;14.90;62.00
78649;DHT22;67962;47.310;9.642;2023-03-30T08:38:38;14.80;62.60
78649;DHT22;67962;47.310;9.642;2023-03-30T08:44:01;14.90;61.80
78649;DHT22;67962;47.310;9.642;2023-03-30T08:46:30;14.90;61.30
78649;DHT22;67962;47.310;9.642;2023-03-30T08:48:58;14.90;62.20
78649;DHT22;67962;47.310;9.642;2023-03-30T08:51:30;14.90;62.90
78649;DHT22;67962;47.310;9.642;2023-03-30T08:53:59;15.10;63.20
78649;DHT22;67962;47.310;9.642;2023-03-30T08:56:29;15.10;61.90
78649;DHT22;67962;47.310;9.642;2023-03-30T09:04:55;15.70;61.00
78649;DHT22;67962;47.310;9.642;2023-03-30T09:07:27;15.80;58.30
78649;DHT22;67962;47.310;9.642;2023-03-30T09:09:56;15.80;60.10
78649;DHT22;67962;47.310;9.642;2023-03-30T09:15:24;15.80;61.20
78649;DHT22;67962;47.310;9.642;2023-03-30T09:18:05;15.80;61.80
78649;DHT22;67962;47.310;9.642;2023-03-30T09:20:35;15.80;61.20
78649;DHT22;67962;47.310;9.642;2023-03-30T09:23:03;15.80;61.50
78649;DHT22;67962;47.310;9.642;2023-03-30T09:25:40;15.80;62.20
78649;DHT22;67962;47.310;9.642;2023-03-30T09:33:44;15.80;63.60
78649;DHT22;67962;47.310;9.642;2023-03-30T09:38:38;15.70;63.10
78649;DHT22;67962;47.310;9.642;2023-03-30T09:43:56;15.80;63.40
78649;DHT22;67962;47.310;9.642;2023-03-30T09:46:22;15.80;62.90
78649;DHT22;67962;47.310;9.642;2023-03-30T09:48:49;15.90;62.60
78649;DHT22;67962;47.310;9.642;2023-03-30T09:53:44;16.00;61.50
78649;DHT22;67962;47.310;9.642;2023-03-30T09:59:26;16.10;62.70
78649;DHT22;67962;47.310;9.642;2023-03-30T10:02:14;16.30;62.80
78649;DHT22;67962;47.310;9.642;2023-03-30T10:07:30;16.30;61.10
78649;DHT22;67962;47.310;9.642;2023-03-30T10:09:58;16.30;61.00
78649;DHT22;67962;47.310;9.642;2023-03-30T10:12:26;16.30;60.80
78649;DHT22;67962;47.310;9.642;2023-03-30T10:14:54;16.30;60.70
78649;DHT22;67962;47.310;9.642;2023-03-30T10:17:23;16.40;60.80
78649;DHT22;67962;47.310;9.642;2023-03-30T10:20:33;16.40;60.60
78649;DHT22;67962;47.310;9.642;2023-03-30T10:22:59;16.20;61.50
78649;DHT22;67962;47.310;9.642;2023-03-30T10:25:27;16.20;63.20
78649;DHT22;67962;47.310;9.642;2023-03-30T10:28:00;16.30;62.60
78649;DHT22;67962;47.310;9.642;2023-03-30T10:30:27;16.30;62.60
78649;DHT22;67962;47.310;9.642;2023-03-30T10:32:57;16.40;61.10
78649;DHT22;67962;47.310;9.642;2023-03-30T10:35:26;16.40;57.40
78649;DHT22;67962;47.310;9.642;2023-03-30T10:37:56;16.40;57.30
78649;DHT22;67962;47.310;9.642;2023-03-30T10:40:34;16.50;57.70
78649;DHT22;67962;47.310;9.642;2023-03-30T10:43:09;16.50;56.00
78649;DHT22;67962;47.310;9.642;2023-03-30T10:45:40;16.60;54.00
78649;DHT22;67962;47.310;9.642;2023-03-30T10:51:26;16.60;53.90
78649;DHT22;67962;47.310;9.642;2023-03-30T10:57:20;16.50;57.10
78649;DHT22;67962;47.310;9.642;2023-03-30T11:10:38;16.00;61.40
78649;DHT22;67962;47.310;9.642;2023-03-30T11:18:40;15.50;62.90
78649;DHT22;67962;47.310;9.642;2023-03-30T11:21:23;15.40;63.60
78649;DHT22;67962;47.310;9.642;2023-03-30T11:26:34;15.10;63.00
78649;DHT22;67962;47.310;9.642;2023-03-30T11:31:48;15.30;62.40
78649;DHT22;67962;47.310;9.642;2023-03-30T11:37:20;15.20;63.40
78649;DHT22;67962;47.310;9.642;2023-03-30T11:40:33;15.10;63.70
78649;DHT22;67962;47.310;9.642;2023-03-30T11:43:00;15.10;62.90
78649;DHT22;67962;47.310;9.642;2023-03-30T12:03:32;14.90;66.40
78649;DHT22;67962;47.310;9.642;2023-03-30T12:05:39;14.90;66.60
78649;DHT22;67962;47.310;9.642;2023-03-30T12:10:58;14.90;66.10
78649;DHT22;67962;47.310;9.642;2023-03-30T12:13:26;14.90;66.10
78649;DHT22;67962;47.310;9.642;2023-03-30T12:18:28;14.90;65.30
78649;DHT22;67962;47.310;9.642;2023-03-30T12:23:52;14.90;64.60
78649;DHT22;67962;47.310;9.642;2023-03-30T12:28:53;15.00;64.30
78649;DHT22;67962;47.310;9.642;2023-03-30T12:34:26;15.10;63.30
78649;DHT22;67962;47.310;9.642;2023-03-30T12:37:03;15.10;63.50
78649;DHT22;67962;47.310;9.642;2023-03-30T12:39:32;15.10;62.40
78649;DHT22;67962;47.310;9.642;2023-03-30T12:42:24;15.10;62.30
78649;DHT22;67962;47.310;9.642;2023-03-30T13:01:24;15.40;63.40
78649;DHT22;67962;47.310;9.642;2023-03-30T13:04:00;15.40;63.40
78649;DHT22;67962;47.310;9.642;2023-03-30T13:06:34;15.50;63.20
78649;DHT22;67962;47.310;9.642;2023-03-30T13:24:52;15.40;65.60
78649;DHT22;67962;47.310;9.642;2023-03-30T13:46:07;14.90;68.40
78649;DHT22;67962;47.310;9.642;2023-03-30T13:51:26;14.70;69.40
78649;DHT22;67962;47.310;9.642;2023-03-30T13:54:01;14.50;69.60
78649;DHT22;67962;47.310;9.642;2023-03-30T13:56:39;14.50;69.80
78649;DHT22;67962;47.310;9.642;2023-03-30T13:59:12;14.40;70.00
78649;DHT22;67962;47.310;9.642;2023-03-30T14:01:39;14.30;70.00
78649;DHT22;67962;47.310;9.642;2023-03-30T14:04:07;14.10;69.60
78649;DHT22;67962;47.310;9.642;2023-03-30T14:06:41;14.10;70.40
78649;DHT22;67962;47.310;9.642;2023-03-30T14:09:16;14.00;69.70
78649;DHT22;67962;47.310;9.642;2023-03-30T14:11:43;14.00;70.50
78649;DHT22;67962;47.310;9.642;2023-03-30T14:16:56;14.00;69.60
78649;DHT22;67962;47.310;9.642;2023-03-30T14:19:26;14.00;71.00
78649;DHT22;67962;47.310;9.642;2023-03-30T14:22:19;14.00;71.70
78649;DHT22;67962;47.310;9.642;2023-03-30T14:25:00;14.00;71.80
78649;DHT22;67962;47.310;9.642;2023-03-30T14:27:36;14.00;72.80
78649;DHT22;67962;47.310;9.642;2023-03-30T14:30:22;13.90;73.20
78649;DHT22;67962;47.310;9.642;2023-03-30T14:33:07;13.80;73.30
78649;DHT22;67962;47.310;9.642;2023-03-30T14:35:38;13.90;73.10
78649;DHT22;67962;47.310;9.642;2023-03-30T14:38:05;13.90;73.20
78649;DHT22;67962;47.310;9.642;2023-03-30T14:40:31;13.80;72.60
78649;DHT22;67962;47.310;9.642;2023-03-30T14:43:01;13.80;72.90
78649;DHT22;67962;47.310;9.642;2023-03-30T14:45:28;13.80;72.80
78649;DHT22;67962;47.310;9.642;2023-03-30T14:47:54;13.80;72.70
78649;DHT22;67962;47.310;9.642;2023-03-30T14:50:21;13.80;72.60
78649;DHT22;67962;47.310;9.642;2023-03-30T14:52:47;13.80;72.70
78649;DHT22;67962;47.310;9.642;2023-03-30T14:55:19;13.90;72.60
78649;DHT22;67962;47.310;9.642;2023-03-30T14:57:46;13.90;72.10
78649;DHT22;67962;47.310;9.642;2023-03-30T15:00:19;13.90;71.80
78649;DHT22;67962;47.310;9.642;2023-03-30T15:02:55;14.00;71.10
78649;DHT22;67962;47.310;9.642;2023-03-30T15:05:25;14.00;70.90
78649;DHT22;67962;47.310;9.642;2023-03-30T15:07:53;14.00;71.10
78649;DHT22;67962;47.310;9.642;2023-03-30T15:10:52;14.10;70.80
78649;DHT22;67962;47.310;9.642;2023-03-30T15:13:26;14.20;70.10
78649;DHT22;67962;47.310;9.642;2023-03-30T15:15:54;14.20;69.60
78649;DHT22;67962;47.310;9.642;2023-03-30T15:18:24;14.30;69.80
78649;DHT22;67962;47.310;9.642;2023-03-30T15:20:50;14.40;69.50
78649;DHT22;67962;47.310;9.642;2023-03-30T15:23:16;14.50;68.70
78649;DHT22;67962;47.310;9.642;2023-03-30T15:25:43;14.70;67.80
78649;DHT22;67962;47.310;9.642;2023-03-30T15:28:14;14.80;66.50
78649;DHT22;67962;47.310;9.642;2023-03-30T15:30:44;14.90;66.20
78649;DHT22;67962;47.310;9.642;2023-03-30T15:33:23;15.10;65.30
78649;DHT22;67962;47.310;9.642;2023-03-30T15:35:51;15.30;64.60
78649;DHT22;67962;47.310;9.642;2023-03-30T15:38:27;15.40;64.70
78649;DHT22;67962;47.310;9.642;2023-03-30T15:40:53;15.50;63.00
78649;DHT22;67962;47.310;9.642;2023-03-30T15:43:24;15.60;62.70
78649;DHT22;67962;47.310;9.642;2023-03-30T15:45:51;15.70;62.20
78649;DHT22;67962;47.310;9.642;2023-03-30T15:48:24;15.80;61.60
78649;DHT22;67962;47.310;9.642;2023-03-30T15:51:04;16.00;61.00
78649;DHT22;67962;47.310;9.642;2023-03-30T15:53:49;16.00;59.00
78649;DHT22;67962;47.310;9.642;2023-03-30T15:56:32;16.10;58.60
78649;DHT22;67962;47.310;9.642;2023-03-30T15:58:59;16.10;58.40
78649;DHT22;67962;47.310;9.642;2023-03-30T16:04:15;16.20;58.20
78649;DHT22;67962;47.310;9.642;2023-03-30T16:06:42;16.30;56.50
78649;DHT22;67962;47.310;9.642;2023-03-30T16:09:07;16.40;55.20
78649;DHT22;67962;47.310;9.642;2023-03-30T16:11:34;16.50;54.40
78649;DHT22;67962;47.310;9.642;2023-03-30T16:13:59;16.40;56.00
78649;DHT22;67962;47.310;9.642;2023-03-30T16:16:26;16.40;55.00
78649;DHT22;67962;47.310;9.642;2023-03-30T16:18:52;16.50;54.60
78649;DHT22;67962;47.310;9.642;2023-03-30T16:21:17;16.50;55.50
78649;DHT22;67962;47.310;9.642;2023-03-30T16:23:43;16.50;54.70
78649;DHT22;67962;47.310;9.642;2023-03-30T16:26:10;16.50;54.40
78649;DHT22;67962;47.310;9.642;2023-03-30T16:28:37;16.60;53.80
78649;DHT22;67962;47.310;9.642;2023-03-30T16:31:10;16.60;53.90
78649;DHT22;67962;47.310;9.642;2023-03-30T16:33:37;16.60;51.70
78649;DHT22;67962;47.310;9.642;2023-03-30T16:36:03;16.70;52.20
78649;DHT22;67962;47.310;9.642;2023-03-30T16:38:29;16.70;52.90
78649;DHT22;67962;47.310;9.642;2023-03-30T16:40:56;16.70;50.70
78649;DHT22;67962;47.310;9.642;2023-03-30T16:43:23;16.70;50.80
78649;DHT22;67962;47.310;9.642;2023-03-30T16:45:50;16.70;51.10
78649;DHT22;67962;47.310;9.642;2023-03-30T16:48:16;16.80;51.60
78649;DHT22;67962;47.310;9.642;2023-03-30T16:50:53;16.70;52.00
78649;DHT22;67962;47.310;9.642;2023-03-30T16:53:19;16.80;51.30
78649;DHT22;67962;47.310;9.642;2023-03-30T16:55:45;16.70;51.00
78649;DHT22;67962;47.310;9.642;2023-03-30T16:58:12;16.60;51.00
78649;DHT22;67962;47.310;9.642;2023-03-30T17:00:44;16.60;51.80
78649;DHT22;67962;47.310;9.642;2023-03-30T17:03:11;16.60;50.70
78649;DHT22;67962;47.310;9.642;2023-03-30T17:05:37;16.50;50.00
78649;DHT22;67962;47.310;9.642;2023-03-30T17:08:05;16.50;49.60
78649;DHT22;67962;47.310;9.642;2023-03-30T17:10:35;16.50;49.80
78649;DHT22;67962;47.310;9.642;2023-03-30T17:13:01;16.50;49.50
78649;DHT22;67962;47.310;9.642;2023-03-30T17:15:27;16.50;49.40
78649;DHT22;67962;47.310;9.642;2023-03-30T17:17:54;16.50;49.40
78649;DHT22;67962;47.310;9.642;2023-03-30T17:20:44;16.50;48.90
78649;DHT22;67962;47.310;9.642;2023-03-30T17:23:07;16.40;48.40
78649;DHT22;67962;47.310;9.642;2023-03-30T17:25:35;16.40;48.00
78649;DHT22;67962;47.310;9.642;2023-03-30T17:28:04;16.30;48.70
78649;DHT22;67962;47.310;9.642;2023-03-30T17:30:37;16.30;49.20
78649;DHT22;67962;47.310;9.642;2023-03-30T17:33:06;16.30;48.90
78649;DHT22;67962;47.310;9.642;2023-03-30T17:35:38;16.20;48.30
78649;DHT22;67962;47.310;9.642;2023-03-30T17:38:05;16.20;48.30
78649;DHT22;67962;47.310;9.642;2023-03-30T17:40:35;16.10;48.80
78649;DHT22;67962;47.310;9.642;2023-03-30T17:43:07;16.10;48.50
78649;DHT22;67962;47.310;9.642;2023-03-30T17:45:36;16.00;48.50
78649;DHT22;67962;47.310;9.642;2023-03-30T17:48:04;16.00;49.10
78649;DHT22;67962;47.310;9.642;2023-03-30T17:50:34;15.90;48.60
78649;DHT22;67962;47.310;9.642;2023-03-30T17:53:01;15.80;47.60
78649;DHT22;67962;47.310;9.642;2023-03-30T17:55:30;15.80;48.70
78649;DHT22;67962;47.310;9.642;2023-03-30T17:57:57;15.80;49.00
78649;DHT22;67962;47.310;9.642;2023-03-30T18:00:24;15.70;49.20
78649;DHT22;67962;47.310;9.642;2023-03-30T18:02:51;15.70;48.90
78649;DHT22;67962;47.310;9.642;2023-03-30T18:05:19;15.70;49.40
78649;DHT22;67962;47.310;9.642;2023-03-30T18:07:45;15.60;49.60
78649;DHT22;67962;47.310;9.642;2023-03-30T18:10:35;15.50;49.80
78649;DHT22;67962;47.310;9.642;2023-03-30T18:13:02;15.50;49.50
78649;DHT22;67962;47.310;9.642;2023-03-30T18:15:29;15.40;49.90
78649;DHT22;67962;47.310;9.642;2023-03-30T18:17:57;15.40;50.20
78649;DHT22;67962;47.310;9.642;2023-03-30T18:20:32;15.30;50.70
78649;DHT22;67962;47.310;9.642;2023-03-30T18:22:59;15.30;51.20
78649;DHT22;67962;47.310;9.642;2023-03-30T18:25:26;15.20;52.50
78649;DHT22;67962;47.310;9.642;2023-03-30T18:27:53;15.10;53.00
78649;DHT22;67962;47.310;9.642;2023-03-30T18:30:39;15.10;53.00
78649;DHT22;67962;47.310;9.642;2023-03-30T18:33:05;15.00;52.60
78649;DHT22;67962;47.310;9.642;2023-03-30T18:35:35;15.00;52.80
78649;DHT22;67962;47.310;9.642;2023-03-30T18:38:02;14.90;52.40
78649;DHT22;67962;47.310;9.642;2023-03-30T18:40:37;14.90;52.40
78649;DHT22;67962;47.310;9.642;2023-03-30T18:43:05;14.90;52.70
78649;DHT22;67962;47.310;9.642;2023-03-30T18:45:33;14.90;53.50
78649;DHT22;67962;47.310;9.642;2023-03-30T18:48:00;14.90;55.60
78649;DHT22;67962;47.310;9.642;2023-03-30T18:50:36;14.70;56.90
78649;DHT22;67962;47.310;9.642;2023-03-30T18:53:04;14.60;57.40
78649;DHT22;67962;47.310;9.642;2023-03-30T18:55:32;14.50;58.40
78649;DHT22;67962;47.310;9.642;2023-03-30T18:57:58;14.40;59.00